Wrights, IL (62098)

12:03 PM CDT on August 27, 2014 (GMT -0500)
Piasa | Change Station
CLOSE
Current Station
Personal Weather Station
Location: Piasa, IL
Elevation: 591 ft
Nearby Weather Stations
Active Advisory: Excessive Heat Warning

Elev 591 ft 39.12 °N, 90.14 °W | Updated 26 minutes ago

Clear
Clear
87.8 °F
Feels Like 99 °F
N
2.0
Wind Variable Wind from ENE
Gusts 6.0 mph

Today
High -- | Low -- °F
--% Chance of Precip.
Yesterday
High -- | Low -- °F
Precip. -- in
6:25 AM 7:39 PM
Waxing Crescent, 4% visible
Pressure 30.13 in
Visibility 10.0 miles
Clouds Scattered Clouds 2200 ft
Heat Index 99 °F
Dew Point 76 °F
Humidity 68%
Rainfall 0.08 in
Snow Depth Not available.
UV 7 out of 12
Pollen 10.20 out of 12
Air Quality Not available.
Flu Activity Not available.
METAR KIJX 271655Z AUTO 02004KT 10SM SCT022 30/24 A3013 RMK AO2 T02990239

More Conditions Fewer Conditions

Pressure 30.13 in
Visibility 10.0 miles
Clouds Scattered Clouds 2200 ft
Heat Index 99 °F
Dew Point 76 °F
Humidity 68%
Rainfall 0.08 in
Snow Depth Not available.
UV 7 out of 12
Pollen 10.20 out of 12
Air Quality Not available.
Flu Activity Not available.
METAR KIJX 271655Z AUTO 02004KT 10SM SCT022 30/24 A3013 RMK AO2 T02990239

More Conditions Fewer Conditions

10-Day Weather Forecast

Almanac

Astronomy

Aug. 27, 2014 Rise Set
Actual Time 6:25 AM CDT 7:39 PM CDT
Civil Twilight 5:57 AM CDT 8:07 PM CDT
Nautical Twilight 5:23 AM CDT 8:40 PM CDT
Astronomical Twilight 4:49 AM CDT 9:15 PM CDT
Moon 8:20 AM CDT 8:32 PM CDT
Length of Visible Light 14h 10m
Length of Day
13h 14m
Tomorrow will be 2m 25s shorter.
Waxing Crescent, 4% of the Moon is Illuminated
Today
Waxing Crescent
Sep 2
First Quarter
Sep 8
Full
Sep 15
Last Quarter
Sep 24
New

Today's Extremes

State Highs State Lows

Community

WunderPhotos

Upload Photos

1,747,727 photos uploaded!

Nearby

Snow Depth

Station Depth Elevation
No new snow has been reported.

Earthquake Activity

City Distance Mag. Time & Date
No recent earthquake activity has been reported nearby.
Minimum magnitude displayed is 2.5.

Coastal Water Temperatures

Place Temperature
No Stations Reporting

Nearby Weather Stations